sensor_id;sensor_type;location;lat;lon;timestamp;temperature;humidity
64652;HTU21D;51062;45.120;37.660;2022-07-23T00:01:00;21.25;74.57
64652;HTU21D;51062;45.120;37.660;2022-07-23T00:03:27;21.21;74.67
64652;HTU21D;51062;45.120;37.660;2022-07-23T00:05:53;21.17;74.73
64652;HTU21D;51062;45.120;37.660;2022-07-23T00:08:19;21.16;74.76
64652;HTU21D;51062;45.120;37.660;2022-07-23T00:10:45;21.14;74.74
64652;HTU21D;51062;45.120;37.660;2022-07-23T00:13:11;21.13;74.77
64652;HTU21D;51062;45.120;37.660;2022-07-23T00:15:37;21.14;74.78
64652;HTU21D;51062;45.120;37.660;2022-07-23T00:18:03;21.14;74.66
64652;HTU21D;51062;45.120;37.660;2022-07-23T00:20:29;21.13;74.60
64652;HTU21D;51062;45.120;37.660;2022-07-23T00:22:56;21.09;74.64
64652;HTU21D;51062;45.120;37.660;2022-07-23T00:25:24;21.10;74.70
64652;HTU21D;51062;45.120;37.660;2022-07-23T00:27:52;21.10;74.66
64652;HTU21D;51062;45.120;37.660;2022-07-23T00:30:18;21.14;74.64
64652;HTU21D;51062;45.120;37.660;2022-07-23T00:32:55;21.15;74.67
64652;HTU21D;51062;45.120;37.660;2022-07-23T00:35:25;21.15;74.46
64652;HTU21D;51062;45.120;37.660;2022-07-23T00:37:52;21.11;74.44
64652;HTU21D;51062;45.120;37.660;2022-07-23T00:40:18;21.07;74.43
64652;HTU21D;51062;45.120;37.660;2022-07-23T00:42:44;21.03;74.45
64652;HTU21D;51062;45.120;37.660;2022-07-23T00:45:11;20.96;74.51
64652;HTU21D;51062;45.120;37.660;2022-07-23T00:47:37;20.94;74.60
64652;HTU21D;51062;45.120;37.660;2022-07-23T00:50:06;20.92;74.64
64652;HTU21D;51062;45.120;37.660;2022-07-23T00:52:34;20.88;74.67
64652;HTU21D;51062;45.120;37.660;2022-07-23T00:55:01;20.87;74.70
64652;HTU21D;51062;45.120;37.660;2022-07-23T00:57:28;20.84;74.76
64652;HTU21D;51062;45.120;37.660;2022-07-23T00:59:55;20.84;74.81
64652;HTU21D;51062;45.120;37.660;2022-07-23T01:02:22;20.85;74.83
64652;HTU21D;51062;45.120;37.660;2022-07-23T01:04:48;20.87;74.80
64652;HTU21D;51062;45.120;37.660;2022-07-23T01:07:15;20.89;74.78
64652;HTU21D;51062;45.120;37.660;2022-07-23T01:09:42;20.91;74.78
64652;HTU21D;51062;45.120;37.660;2022-07-23T01:12:09;20.93;74.72
64652;HTU21D;51062;45.120;37.660;2022-07-23T01:14:35;20.93;74.69
64652;HTU21D;51062;45.120;37.660;2022-07-23T01:17:02;20.94;74.58
64652;HTU21D;51062;45.120;37.660;2022-07-23T01:19:28;20.92;74.49
64652;HTU21D;51062;45.120;37.660;2022-07-23T01:21:57;20.87;74.50
64652;HTU21D;51062;45.120;37.660;2022-07-23T01:24:24;20.80;74.53
64652;HTU21D;51062;45.120;37.660;2022-07-23T01:26:58;20.73;74.57
64652;HTU21D;51062;45.120;37.660;2022-07-23T01:29:25;20.64;74.63
64652;HTU21D;51062;45.120;37.660;2022-07-23T01:31:52;20.56;74.72
64652;HTU21D;51062;45.120;37.660;2022-07-23T01:34:18;20.49;74.78
64652;HTU21D;51062;45.120;37.660;2022-07-23T01:36:45;20.41;74.89
64652;HTU21D;51062;45.120;37.660;2022-07-23T01:39:15;20.32;75.02
64652;HTU21D;51062;45.120;37.660;2022-07-23T01:41:41;20.26;75.11
64652;HTU21D;51062;45.120;37.660;2022-07-23T01:44:08;20.19;75.23
64652;HTU21D;51062;45.120;37.660;2022-07-23T01:46:38;20.13;75.34
64652;HTU21D;51062;45.120;37.660;2022-07-23T01:49:05;20.06;75.36
64652;HTU21D;51062;45.120;37.660;2022-07-23T01:51:49;19.98;75.41
64652;HTU21D;51062;45.120;37.660;2022-07-23T01:54:41;19.92;75.45
64652;HTU21D;51062;45.120;37.660;2022-07-23T01:57:08;19.88;75.54
64652;HTU21D;51062;45.120;37.660;2022-07-23T01:59:35;19.84;75.60
64652;HTU21D;51062;45.120;37.660;2022-07-23T02:02:02;19.80;75.67
64652;HTU21D;51062;45.120;37.660;2022-07-23T02:04:30;19.75;75.71
64652;HTU21D;51062;45.120;37.660;2022-07-23T02:06:56;19.72;75.79
64652;HTU21D;51062;45.120;37.660;2022-07-23T02:09:25;19.72;75.84
64652;HTU21D;51062;45.120;37.660;2022-07-23T02:11:51;19.72;75.89
64652;HTU21D;51062;45.120;37.660;2022-07-23T02:14:18;19.76;75.92
64652;HTU21D;51062;45.120;37.660;2022-07-23T02:16:45;19.80;75.98
64652;HTU21D;51062;45.120;37.660;2022-07-23T02:19:11;19.88;75.99
64652;HTU21D;51062;45.120;37.660;2022-07-23T02:21:38;19.99;75.98
64652;HTU21D;51062;45.120;37.660;2022-07-23T02:24:04;20.09;75.90
64652;HTU21D;51062;45.120;37.660;2022-07-23T02:26:31;20.18;75.79
64652;HTU21D;51062;45.120;37.660;2022-07-23T02:29:04;20.27;75.70
64652;HTU21D;51062;45.120;37.660;2022-07-23T02:31:31;20.32;75.70
64652;HTU21D;51062;45.120;37.660;2022-07-23T02:33:58;20.41;75.72
64652;HTU21D;51062;45.120;37.660;2022-07-23T02:36:25;20.49;75.67
64652;HTU21D;51062;45.120;37.660;2022-07-23T02:38:52;20.56;75.63
64652;HTU21D;51062;45.120;37.660;2022-07-23T02:41:19;20.63;75.62
64652;HTU21D;51062;45.120;37.660;2022-07-23T02:43:45;20.69;75.61
64652;HTU21D;51062;45.120;37.660;2022-07-23T02:46:12;20.71;75.66
64652;HTU21D;51062;45.120;37.660;2022-07-23T02:48:39;20.75;75.69
64652;HTU21D;51062;45.120;37.660;2022-07-23T02:51:06;20.87;75.91
64652;HTU21D;51062;45.120;37.660;2022-07-23T02:53:37;21.31;76.23
64652;HTU21D;51062;45.120;37.660;2022-07-23T02:56:04;21.85;76.37
64652;HTU21D;51062;45.120;37.660;2022-07-23T02:58:30;22.29;75.99
64652;HTU21D;51062;45.120;37.660;2022-07-23T03:00:56;22.55;75.51
64652;HTU21D;51062;45.120;37.660;2022-07-23T03:03:24;22.75;75.30
64652;HTU21D;51062;45.120;37.660;2022-07-23T03:05:50;22.98;74.92
64652;HTU21D;51062;45.120;37.660;2022-07-23T03:08:16;22.96;74.26
64652;HTU21D;51062;45.120;37.660;2022-07-23T03:10:48;22.91;74.13
64652;HTU21D;51062;45.120;37.660;2022-07-23T03:13:15;22.80;73.85
64652;HTU21D;51062;45.120;37.660;2022-07-23T03:15:41;22.82;73.79
64652;HTU21D;51062;45.120;37.660;2022-07-23T03:18:07;23.00;73.99
64652;HTU21D;51062;45.120;37.660;2022-07-23T03:20:33;23.18;73.30
64652;HTU21D;51062;45.120;37.660;2022-07-23T03:23:00;23.08;72.65
64652;HTU21D;51062;45.120;37.660;2022-07-23T03:25:28;22.85;72.50
64652;HTU21D;51062;45.120;37.660;2022-07-23T03:27:54;22.61;72.61
64652;HTU21D;51062;45.120;37.660;2022-07-23T03:30:20;22.35;72.85
64652;HTU21D;51062;45.120;37.660;2022-07-23T03:32:46;22.16;73.15
64652;HTU21D;51062;45.120;37.660;2022-07-23T03:35:12;22.03;73.47
64652;HTU21D;51062;45.120;37.660;2022-07-23T03:37:47;22.13;74.02
64652;HTU21D;51062;45.120;37.660;2022-07-23T03:40:14;22.80;74.74
64652;HTU21D;51062;45.120;37.660;2022-07-23T03:42:40;23.52;73.97
64652;HTU21D;51062;45.120;37.660;2022-07-23T03:45:08;24.06;73.31
64652;HTU21D;51062;45.120;37.660;2022-07-23T03:47:34;24.72;72.54
64652;HTU21D;51062;45.120;37.660;2022-07-23T03:50:01;25.35;71.59
64652;HTU21D;51062;45.120;37.660;2022-07-23T03:52:27;25.93;70.70
64652;HTU21D;51062;45.120;37.660;2022-07-23T03:54:53;26.37;70.00
64652;HTU21D;51062;45.120;37.660;2022-07-23T03:57:22;26.47;69.71
64652;HTU21D;51062;45.120;37.660;2022-07-23T03:59:48;26.31;68.82
64652;HTU21D;51062;45.120;37.660;2022-07-23T04:02:14;26.16;67.97
64652;HTU21D;51062;45.120;37.660;2022-07-23T04:04:40;26.15;66.76
64652;HTU21D;51062;45.120;37.660;2022-07-23T04:07:07;26.48;65.30
64652;HTU21D;51062;45.120;37.660;2022-07-23T04:09:33;27.01;64.25
64652;HTU21D;51062;45.120;37.660;2022-07-23T04:12:00;27.57;63.60
64652;HTU21D;51062;45.120;37.660;2022-07-23T04:14:26;28.06;62.84
64652;HTU21D;51062;45.120;37.660;2022-07-23T04:16:53;28.06;61.73
64652;HTU21D;51062;45.120;37.660;2022-07-23T04:19:20;28.18;61.86
64652;HTU21D;51062;45.120;37.660;2022-07-23T04:22:02;28.65;61.12
64652;HTU21D;51062;45.120;37.660;2022-07-23T04:24:30;29.07;60.49
64652;HTU21D;51062;45.120;37.660;2022-07-23T04:26:57;29.51;59.54
64652;HTU21D;51062;45.120;37.660;2022-07-23T04:29:24;29.98;57.93
64652;HTU21D;51062;45.120;37.660;2022-07-23T04:31:51;30.33;56.79
64652;HTU21D;51062;45.120;37.660;2022-07-23T04:34:18;30.59;55.42
64652;HTU21D;51062;45.120;37.660;2022-07-23T04:36:45;30.80;54.62
64652;HTU21D;51062;45.120;37.660;2022-07-23T04:39:12;30.97;54.34
64652;HTU21D;51062;45.120;37.660;2022-07-23T04:41:38;31.22;53.31
64652;HTU21D;51062;45.120;37.660;2022-07-23T04:44:04;31.29;52.65
64652;HTU21D;51062;45.120;37.660;2022-07-23T04:46:31;31.44;51.49
64652;HTU21D;51062;45.120;37.660;2022-07-23T04:48:57;31.49;51.25
64652;HTU21D;51062;45.120;37.660;2022-07-23T04:51:24;31.63;50.12
64652;HTU21D;51062;45.120;37.660;2022-07-23T04:53:50;31.61;49.58
64652;HTU21D;51062;45.120;37.660;2022-07-23T04:56:17;31.51;48.27
64652;HTU21D;51062;45.120;37.660;2022-07-23T04:58:43;31.49;48.94
64652;HTU21D;51062;45.120;37.660;2022-07-23T05:01:10;31.71;48.95
64652;HTU21D;51062;45.120;37.660;2022-07-23T05:03:37;32.03;48.50
64652;HTU21D;51062;45.120;37.660;2022-07-23T05:06:03;32.31;47.99
64652;HTU21D;51062;45.120;37.660;2022-07-23T05:08:30;32.54;47.49
64652;HTU21D;51062;45.120;37.660;2022-07-23T05:10:58;32.66;46.41
64652;HTU21D;51062;45.120;37.660;2022-07-23T05:13:24;32.73;45.94
64652;HTU21D;51062;45.120;37.660;2022-07-23T05:15:52;32.75;45.04
64652;HTU21D;51062;45.120;37.660;2022-07-23T05:18:18;32.78;43.51
64652;HTU21D;51062;45.120;37.660;2022-07-23T05:20:44;32.58;43.70
64652;HTU21D;51062;45.120;37.660;2022-07-23T05:23:14;32.56;43.90
64652;HTU21D;51062;45.120;37.660;2022-07-23T05:25:40;32.54;43.54
64652;HTU21D;51062;45.120;37.660;2022-07-23T05:28:07;31.81;43.79
64652;HTU21D;51062;45.120;37.660;2022-07-23T05:30:33;30.69;45.09
64652;HTU21D;51062;45.120;37.660;2022-07-23T05:33:04;30.49;46.74
64652;HTU21D;51062;45.120;37.660;2022-07-23T05:35:31;30.80;46.34
64652;HTU21D;51062;45.120;37.660;2022-07-23T05:38:24;31.25;45.78
64652;HTU21D;51062;45.120;37.660;2022-07-23T05:40:51;31.70;45.53
64652;HTU21D;51062;45.120;37.660;2022-07-23T05:43:18;31.50;44.16
64652;HTU21D;51062;45.120;37.660;2022-07-23T05:45:44;30.77;44.49
64652;HTU21D;51062;45.120;37.660;2022-07-23T05:48:10;30.61;45.00
64652;HTU21D;51062;45.120;37.660;2022-07-23T05:50:46;30.93;44.80
64652;HTU21D;51062;45.120;37.660;2022-07-23T05:53:29;31.31;43.85
64652;HTU21D;51062;45.120;37.660;2022-07-23T05:56:06;31.58;43.69
64652;HTU21D;51062;45.120;37.660;2022-07-23T05:58:35;31.27;43.44
64652;HTU21D;51062;45.120;37.660;2022-07-23T06:01:01;30.27;43.89
64652;HTU21D;51062;45.120;37.660;2022-07-23T06:03:33;29.53;45.40
64652;HTU21D;51062;45.120;37.660;2022-07-23T06:05:59;29.63;45.62
64652;HTU21D;51062;45.120;37.660;2022-07-23T06:08:26;29.43;46.06
64652;HTU21D;51062;45.120;37.660;2022-07-23T06:10:52;29.82;46.46
64652;HTU21D;51062;45.120;37.660;2022-07-23T06:13:19;30.54;45.42
64652;HTU21D;51062;45.120;37.660;2022-07-23T06:15:45;31.07;44.90
64652;HTU21D;51062;45.120;37.660;2022-07-23T06:18:11;31.44;44.21
64652;HTU21D;51062;45.120;37.660;2022-07-23T06:20:39;31.76;42.68
64652;HTU21D;51062;45.120;37.660;2022-07-23T06:23:05;31.85;42.37
64652;HTU21D;51062;45.120;37.660;2022-07-23T06:25:31;31.76;42.02
64652;HTU21D;51062;45.120;37.660;2022-07-23T06:27:57;31.84;41.44
64652;HTU21D;51062;45.120;37.660;2022-07-23T06:30:26;31.97;41.79
64652;HTU21D;51062;45.120;37.660;2022-07-23T06:32:52;31.90;40.52
64652;HTU21D;51062;45.120;37.660;2022-07-23T06:35:19;31.68;41.45
64652;HTU21D;51062;45.120;37.660;2022-07-23T06:37:46;31.99;41.55
64652;HTU21D;51062;45.120;37.660;2022-07-23T06:40:12;32.09;40.95
64652;HTU21D;51062;45.120;37.660;2022-07-23T06:42:40;32.44;40.91
64652;HTU21D;51062;45.120;37.660;2022-07-23T06:45:07;32.44;39.47
64652;HTU21D;51062;45.120;37.660;2022-07-23T06:47:35;32.40;40.12
64652;HTU21D;51062;45.120;37.660;2022-07-23T06:50:02;32.72;39.17
64652;HTU21D;51062;45.120;37.660;2022-07-23T06:52:28;32.53;38.22
64652;HTU21D;51062;45.120;37.660;2022-07-23T06:54:55;31.69;38.80
64652;HTU21D;51062;45.120;37.660;2022-07-23T06:57:21;31.43;39.41
64652;HTU21D;51062;45.120;37.660;2022-07-23T06:59:49;31.63;39.56
64652;HTU21D;51062;45.120;37.660;2022-07-23T07:02:15;31.59;39.61
64652;HTU21D;51062;45.120;37.660;2022-07-23T07:04:41;31.60;39.74
64652;HTU21D;51062;45.120;37.660;2022-07-23T07:07:07;31.56;40.04
64652;HTU21D;51062;45.120;37.660;2022-07-23T07:09:33;31.25;40.07
64652;HTU21D;51062;45.120;37.660;2022-07-23T07:11:59;31.29;40.59
64652;HTU21D;51062;45.120;37.660;2022-07-23T07:14:26;30.82;40.08
64652;HTU21D;51062;45.120;37.660;2022-07-23T07:16:52;30.09;41.04
64652;HTU21D;51062;45.120;37.660;2022-07-23T07:19:18;30.25;42.13
64652;HTU21D;51062;45.120;37.660;2022-07-23T07:21:44;30.34;41.50
64652;HTU21D;51062;45.120;37.660;2022-07-23T07:24:10;29.85;41.81
64652;HTU21D;51062;45.120;37.660;2022-07-23T07:26:36;29.38;42.96
64652;HTU21D;51062;45.120;37.660;2022-07-23T07:29:04;29.45;43.07
64652;HTU21D;51062;45.120;37.660;2022-07-23T07:31:31;29.19;43.35
64652;HTU21D;51062;45.120;37.660;2022-07-23T07:33:58;29.52;43.16
64652;HTU21D;51062;45.120;37.660;2022-07-23T07:36:26;29.80;42.63
64652;HTU21D;51062;45.120;37.660;2022-07-23T07:38:53;29.66;42.81
64652;HTU21D;51062;45.120;37.660;2022-07-23T07:41:19;29.31;43.06
64652;HTU21D;51062;45.120;37.660;2022-07-23T07:43:50;29.46;43.69
64652;HTU21D;51062;45.120;37.660;2022-07-23T07:46:16;29.81;42.84
64652;HTU21D;51062;45.120;37.660;2022-07-23T07:48:42;29.53;42.33
64652;HTU21D;51062;45.120;37.660;2022-07-23T07:51:09;29.26;42.30
64652;HTU21D;51062;45.120;37.660;2022-07-23T07:53:35;29.41;41.97
64652;HTU21D;51062;45.120;37.660;2022-07-23T07:56:01;29.64;41.23
64652;HTU21D;51062;45.120;37.660;2022-07-23T07:58:27;29.94;40.78
64652;HTU21D;51062;45.120;37.660;2022-07-23T08:00:54;30.22;40.59
64652;HTU21D;51062;45.120;37.660;2022-07-23T08:03:21;30.01;40.78
64652;HTU21D;51062;45.120;37.660;2022-07-23T08:05:47;30.05;40.84
64652;HTU21D;51062;45.120;37.660;2022-07-23T08:08:15;30.16;40.86
64652;HTU21D;51062;45.120;37.660;2022-07-23T08:10:42;30.24;40.81
64652;HTU21D;51062;45.120;37.660;2022-07-23T08:13:13;29.97;40.68
64652;HTU21D;51062;45.120;37.660;2022-07-23T08:15:40;29.61;41.27
64652;HTU21D;51062;45.120;37.660;2022-07-23T08:18:06;29.37;41.74
64652;HTU21D;51062;45.120;37.660;2022-07-23T08:20:32;29.04;42.19
64652;HTU21D;51062;45.120;37.660;2022-07-23T08:23:02;28.65;42.87
64652;HTU21D;51062;45.120;37.660;2022-07-23T08:25:32;28.53;43.57
64652;HTU21D;51062;45.120;37.660;2022-07-23T08:28:00;28.37;43.64
64652;HTU21D;51062;45.120;37.660;2022-07-23T08:30:27;28.14;44.06
64652;HTU21D;51062;45.120;37.660;2022-07-23T08:32:59;28.09;44.61
64652;HTU21D;51062;45.120;37.660;2022-07-23T08:37:57;28.19;45.22
64652;HTU21D;51062;45.120;37.660;2022-07-23T08:40:29;28.19;45.30
64652;HTU21D;51062;45.120;37.660;2022-07-23T08:42:55;28.13;45.67
64652;HTU21D;51062;45.120;37.660;2022-07-23T08:45:23;28.11;45.93
64652;HTU21D;51062;45.120;37.660;2022-07-23T08:47:51;28.03;45.64
64652;HTU21D;51062;45.120;37.660;2022-07-23T08:50:17;27.98;45.93
64652;HTU21D;51062;45.120;37.660;2022-07-23T08:52:45;27.81;46.24
64652;HTU21D;51062;45.120;37.660;2022-07-23T08:55:12;27.61;46.60
64652;HTU21D;51062;45.120;37.660;2022-07-23T08:57:39;27.50;46.93
64652;HTU21D;51062;45.120;37.660;2022-07-23T09:00:06;27.32;47.12
64652;HTU21D;51062;45.120;37.660;2022-07-23T09:02:44;27.02;47.32
64652;HTU21D;51062;45.120;37.660;2022-07-23T09:05:12;26.69;47.92
64652;HTU21D;51062;45.120;37.660;2022-07-23T09:08:05;26.36;48.49
64652;HTU21D;51062;45.120;37.660;2022-07-23T09:10:56;26.39;48.92
64652;HTU21D;51062;45.120;37.660;2022-07-23T09:21:26;26.85;48.52
64652;HTU21D;51062;45.120;37.660;2022-07-23T09:24:08;26.95;48.42
64652;HTU21D;51062;45.120;37.660;2022-07-23T09:26:39;26.93;48.54
64652;HTU21D;51062;45.120;37.660;2022-07-23T09:29:23;26.92;49.01
64652;HTU21D;51062;45.120;37.660;2022-07-23T09:32:01;26.81;49.04
64652;HTU21D;51062;45.120;37.660;2022-07-23T09:34:32;26.80;49.41
64652;HTU21D;51062;45.120;37.660;2022-07-23T09:37:10;26.97;49.23
64652;HTU21D;51062;45.120;37.660;2022-07-23T09:39:38;27.06;48.82
64652;HTU21D;51062;45.120;37.660;2022-07-23T09:42:15;26.95;48.79
64652;HTU21D;51062;45.120;37.660;2022-07-23T09:44:46;27.00;49.22
64652;HTU21D;51062;45.120;37.660;2022-07-23T09:47:13;27.12;48.95
64652;HTU21D;51062;45.120;37.660;2022-07-23T09:49:39;27.06;48.57
64652;HTU21D;51062;45.120;37.660;2022-07-23T09:52:05;26.92;49.08
64652;HTU21D;51062;45.120;37.660;2022-07-23T09:54:37;26.96;49.21
64652;HTU21D;51062;45.120;37.660;2022-07-23T09:57:12;26.95;49.09
64652;HTU21D;51062;45.120;37.660;2022-07-23T09:59:43;27.02;49.18
64652;HTU21D;51062;45.120;37.660;2022-07-23T10:02:12;27.14;48.73
64652;HTU21D;51062;45.120;37.660;2022-07-23T10:05:09;27.19;48.33
64652;HTU21D;51062;45.120;37.660;2022-07-23T10:08:18;27.09;48.24
64652;HTU21D;51062;45.120;37.660;2022-07-23T10:11:03;27.11;48.41
64652;HTU21D;51062;45.120;37.660;2022-07-23T10:13:44;27.20;48.02
64652;HTU21D;51062;45.120;37.660;2022-07-23T10:16:20;27.26;47.76
64652;HTU21D;51062;45.120;37.660;2022-07-23T10:18:47;27.26;47.43
64652;HTU21D;51062;45.120;37.660;2022-07-23T10:21:18;27.36;47.63
64652;HTU21D;51062;45.120;37.660;2022-07-23T10:26:55;27.52;47.19
64652;HTU21D;51062;45.120;37.660;2022-07-23T10:30:05;27.42;47.31
64652;HTU21D;51062;45.120;37.660;2022-07-23T10:35:49;26.92;47.13
64652;HTU21D;51062;45.120;37.660;2022-07-23T10:40:57;26.80;47.95
64652;HTU21D;51062;45.120;37.660;2022-07-23T10:43:24;26.80;47.60
64652;HTU21D;51062;45.120;37.660;2022-07-23T10:45:50;26.76;48.04
64652;HTU21D;51062;45.120;37.660;2022-07-23T10:48:20;26.86;48.23
64652;HTU21D;51062;45.120;37.660;2022-07-23T10:51:05;27.07;48.15
64652;HTU21D;51062;45.120;37.660;2022-07-23T10:54:09;27.15;47.79
64652;HTU21D;51062;45.120;37.660;2022-07-23T10:59:24;26.86;47.87
64652;HTU21D;51062;45.120;37.660;2022-07-23T11:01:50;26.85;48.53
64652;HTU21D;51062;45.120;37.660;2022-07-23T11:04:17;26.83;48.28
64652;HTU21D;51062;45.120;37.660;2022-07-23T11:09:24;26.53;48.75
64652;HTU21D;51062;45.120;37.660;2022-07-23T11:14:59;26.42;49.27
64652;HTU21D;51062;45.120;37.660;2022-07-23T11:17:27;26.53;49.18
64652;HTU21D;51062;45.120;37.660;2022-07-23T11:25:11;26.53;48.56
64652;HTU21D;51062;45.120;37.660;2022-07-23T11:27:42;26.34;48.57
64652;HTU21D;51062;45.120;37.660;2022-07-23T11:30:12;26.19;48.75
64652;HTU21D;51062;45.120;37.660;2022-07-23T11:35:39;26.27;48.21
64652;HTU21D;51062;45.120;37.660;2022-07-23T11:38:15;26.35;48.26
64652;HTU21D;51062;45.120;37.660;2022-07-23T11:40:43;26.43;48.08
64652;HTU21D;51062;45.120;37.660;2022-07-23T11:43:11;26.51;48.01
64652;HTU21D;51062;45.120;37.660;2022-07-23T11:45:40;26.60;48.14
64652;HTU21D;51062;45.120;37.660;2022-07-23T11:48:15;26.64;47.93
64652;HTU21D;51062;45.120;37.660;2022-07-23T11:50:42;26.55;47.34
64652;HTU21D;51062;45.120;37.660;2022-07-23T11:53:08;26.49;47.31
64652;HTU21D;51062;45.120;37.660;2022-07-23T11:55:34;26.52;47.63
64652;HTU21D;51062;45.120;37.660;2022-07-23T11:58:01;26.57;47.63
64652;HTU21D;51062;45.120;37.660;2022-07-23T12:00:29;26.61;47.56
64652;HTU21D;51062;45.120;37.660;2022-07-23T12:02:57;26.61;47.83
64652;HTU21D;51062;45.120;37.660;2022-07-23T12:05:29;26.61;47.58
64652;HTU21D;51062;45.120;37.660;2022-07-23T12:07:58;26.54;47.87
64652;HTU21D;51062;45.120;37.660;2022-07-23T12:10:42;26.47;47.67
64652;HTU21D;51062;45.120;37.660;2022-07-23T12:13:11;26.38;47.73
64652;HTU21D;51062;45.120;37.660;2022-07-23T12:15:50;26.33;47.94
64652;HTU21D;51062;45.120;37.660;2022-07-23T12:18:20;26.33;48.08
64652;HTU21D;51062;45.120;37.660;2022-07-23T12:20:52;26.37;48.14
64652;HTU21D;51062;45.120;37.660;2022-07-23T12:23:20;26.42;48.06
64652;HTU21D;51062;45.120;37.660;2022-07-23T12:25:49;26.42;47.84
64652;HTU21D;51062;45.120;37.660;2022-07-23T12:28:21;26.42;47.83
64652;HTU21D;51062;45.120;37.660;2022-07-23T12:30:55;26.45;47.92
64652;HTU21D;51062;45.120;37.660;2022-07-23T12:33:23;26.47;47.47
64652;HTU21D;51062;45.120;37.660;2022-07-23T12:35:51;26.41;47.48
64652;HTU21D;51062;45.120;37.660;2022-07-23T12:38:20;26.39;47.60
64652;HTU21D;51062;45.120;37.660;2022-07-23T12:43:31;26.30;47.18
64652;HTU21D;51062;45.120;37.660;2022-07-23T12:46:09;26.25;47.32
64652;HTU21D;51062;45.120;37.660;2022-07-23T12:51:17;26.32;47.42
64652;HTU21D;51062;45.120;37.660;2022-07-23T12:53:55;26.39;47.50
64652;HTU21D;51062;45.120;37.660;2022-07-23T12:56:32;26.40;47.29
64652;HTU21D;51062;45.120;37.660;2022-07-23T12:59:10;26.37;47.42
64652;HTU21D;51062;45.120;37.660;2022-07-23T13:01:38;26.36;47.32
64652;HTU21D;51062;45.120;37.660;2022-07-23T13:04:10;26.36;47.31
64652;HTU21D;51062;45.120;37.660;2022-07-23T13:06:47;26.35;47.31
64652;HTU21D;51062;45.120;37.660;2022-07-23T13:09:16;26.34;47.40
64652;HTU21D;51062;45.120;37.660;2022-07-23T13:11:43;26.25;47.18
64652;HTU21D;51062;45.120;37.660;2022-07-23T13:14:11;26.11;47.00
64652;HTU21D;51062;45.120;37.660;2022-07-23T13:16:39;26.05;47.25
64652;HTU21D;51062;45.120;37.660;2022-07-23T13:19:06;25.98;47.60
64652;HTU21D;51062;45.120;37.660;2022-07-23T13:21:33;25.97;48.03
64652;HTU21D;51062;45.120;37.660;2022-07-23T13:23:59;26.02;48.24
64652;HTU21D;51062;45.120;37.660;2022-07-23T13:26:26;26.03;48.28
64652;HTU21D;51062;45.120;37.660;2022-07-23T13:28:53;25.90;48.57
64652;HTU21D;51062;45.120;37.660;2022-07-23T13:31:19;25.83;48.89
64652;HTU21D;51062;45.120;37.660;2022-07-23T13:33:46;25.79;49.00
64652;HTU21D;51062;45.120;37.660;2022-07-23T13:36:12;25.72;49.24
64652;HTU21D;51062;45.120;37.660;2022-07-23T13:38:39;25.69;49.53
64652;HTU21D;51062;45.120;37.660;2022-07-23T13:41:05;25.71;49.71
64652;HTU21D;51062;45.120;37.660;2022-07-23T13:43:32;25.72;49.82
64652;HTU21D;51062;45.120;37.660;2022-07-23T13:45:58;25.74;48.96
64652;HTU21D;51062;45.120;37.660;2022-07-23T13:48:25;25.75;48.60
64652;HTU21D;51062;45.120;37.660;2022-07-23T13:50:51;25.74;48.58
64652;HTU21D;51062;45.120;37.660;2022-07-23T13:53:20;25.78;48.70
64652;HTU21D;51062;45.120;37.660;2022-07-23T13:55:47;25.86;48.63
64652;HTU21D;51062;45.120;37.660;2022-07-23T13:58:15;25.87;48.39
64652;HTU21D;51062;45.120;37.660;2022-07-23T14:00:44;25.82;48.46
64652;HTU21D;51062;45.120;37.660;2022-07-23T14:03:10;25.81;48.43
64652;HTU21D;51062;45.120;37.660;2022-07-23T14:05:36;25.74;48.41
64652;HTU21D;51062;45.120;37.660;2022-07-23T14:08:04;25.64;48.59
64652;HTU21D;51062;45.120;37.660;2022-07-23T14:10:30;25.62;48.70
64652;HTU21D;51062;45.120;37.660;2022-07-23T14:12:57;25.60;48.86
64652;HTU21D;51062;45.120;37.660;2022-07-23T14:15:26;25.62;49.05
64652;HTU21D;51062;45.120;37.660;2022-07-23T14:17:53;25.64;49.09
64652;HTU21D;51062;45.120;37.660;2022-07-23T14:20:20;25.63;49.15
64652;HTU21D;51062;45.120;37.660;2022-07-23T14:22:46;25.59;49.24
64652;HTU21D;51062;45.120;37.660;2022-07-23T14:25:15;25.57;49.28
64652;HTU21D;51062;45.120;37.660;2022-07-23T14:27:41;25.58;49.40
64652;HTU21D;51062;45.120;37.660;2022-07-23T14:30:09;25.57;49.50
64652;HTU21D;51062;45.120;37.660;2022-07-23T14:32:36;25.56;49.47
64652;HTU21D;51062;45.120;37.660;2022-07-23T14:35:03;25.53;49.53
64652;HTU21D;51062;45.120;37.660;2022-07-23T14:37:30;25.49;49.70
64652;HTU21D;51062;45.120;37.660;2022-07-23T14:39:57;25.46;49.82
64652;HTU21D;51062;45.120;37.660;2022-07-23T14:42:23;25.44;49.95
64652;HTU21D;51062;45.120;37.660;2022-07-23T14:44:50;25.43;50.00
64652;HTU21D;51062;45.120;37.660;2022-07-23T14:47:16;25.45;49.99
64652;HTU21D;51062;45.120;37.660;2022-07-23T14:49:43;25.46;49.99
64652;HTU21D;51062;45.120;37.660;2022-07-23T14:52:09;25.47;49.98
64652;HTU21D;51062;45.120;37.660;2022-07-23T14:54:35;25.45;50.02
64652;HTU21D;51062;45.120;37.660;2022-07-23T14:57:02;25.38;50.19
64652;HTU21D;51062;45.120;37.660;2022-07-23T14:59:29;25.35;50.34
64652;HTU21D;51062;45.120;37.660;2022-07-23T15:01:57;25.35;50.37
64652;HTU21D;51062;45.120;37.660;2022-07-23T15:04:23;25.35;50.37
64652;HTU21D;51062;45.120;37.660;2022-07-23T15:06:50;25.33;50.45
64652;HTU21D;51062;45.120;37.660;2022-07-23T15:09:17;25.23;50.51
64652;HTU21D;51062;45.120;37.660;2022-07-23T15:11:43;25.18;50.72
64652;HTU21D;51062;45.120;37.660;2022-07-23T15:14:09;25.16;50.82
64652;HTU21D;51062;45.120;37.660;2022-07-23T15:16:35;25.18;50.87
64652;HTU21D;51062;45.120;37.660;2022-07-23T15:19:03;25.16;50.87
64652;HTU21D;51062;45.120;37.660;2022-07-23T15:21:29;25.17;50.92
64652;HTU21D;51062;45.120;37.660;2022-07-23T15:23:56;25.14;50.96
64652;HTU21D;51062;45.120;37.660;2022-07-23T15:26:29;25.10;51.07
64652;HTU21D;51062;45.120;37.660;2022-07-23T15:28:56;25.07;51.15
64652;HTU21D;51062;45.120;37.660;2022-07-23T15:31:24;25.02;51.18
64652;HTU21D;51062;45.120;37.660;2022-07-23T15:33:51;24.99;51.21
64652;HTU21D;51062;45.120;37.660;2022-07-23T15:36:20;24.95;51.24
64652;HTU21D;51062;45.120;37.660;2022-07-23T15:38:47;24.90;51.24
64652;HTU21D;51062;45.120;37.660;2022-07-23T15:41:13;24.87;51.22
64652;HTU21D;51062;45.120;37.660;2022-07-23T15:43:39;24.79;51.33
64652;HTU21D;51062;45.120;37.660;2022-07-23T15:46:06;24.74;51.47
64652;HTU21D;51062;45.120;37.660;2022-07-23T15:48:35;24.69;51.62
64652;HTU21D;51062;45.120;37.660;2022-07-23T15:51:02;24.64;51.76
64652;HTU21D;51062;45.120;37.660;2022-07-23T15:53:29;24.59;51.86